sensor_id;sensor_type;location;lat;lon;timestamp;temperature;humidity
16032;DHT22;8120;48.308;8.914;2022-07-03T00:00:45;14.70;78.60
16032;DHT22;8120;48.308;8.914;2022-07-03T00:03:12;14.60;78.00
16032;DHT22;8120;48.308;8.914;2022-07-03T00:05:40;14.40;78.70
16032;DHT22;8120;48.308;8.914;2022-07-03T00:08:08;14.30;79.20
16032;DHT22;8120;48.308;8.914;2022-07-03T00:10:37;14.30;79.70
16032;DHT22;8120;48.308;8.914;2022-07-03T00:13:06;14.30;80.20
16032;DHT22;8120;48.308;8.914;2022-07-03T00:15:34;14.30;80.50
16032;DHT22;8120;48.308;8.914;2022-07-03T00:18:02;14.40;79.90
16032;DHT22;8120;48.308;8.914;2022-07-03T00:20:37;14.40;78.70
16032;DHT22;8120;48.308;8.914;2022-07-03T00:23:09;14.30;79.90
16032;DHT22;8120;48.308;8.914;2022-07-03T00:25:40;14.30;79.10
16032;DHT22;8120;48.308;8.914;2022-07-03T00:28:09;14.20;79.80
16032;DHT22;8120;48.308;8.914;2022-07-03T00:30:36;14.20;80.70
16032;DHT22;8120;48.308;8.914;2022-07-03T00:33:05;14.20;80.60
16032;DHT22;8120;48.308;8.914;2022-07-03T00:35:35;14.10;80.10
16032;DHT22;8120;48.308;8.914;2022-07-03T00:38:04;14.00;81.50
16032;DHT22;8120;48.308;8.914;2022-07-03T00:40:32;14.00;80.60
16032;DHT22;8120;48.308;8.914;2022-07-03T00:43:02;13.90;81.70
16032;DHT22;8120;48.308;8.914;2022-07-03T00:45:33;13.90;81.80
16032;DHT22;8120;48.308;8.914;2022-07-03T00:48:01;13.80;81.30
16032;DHT22;8120;48.308;8.914;2022-07-03T00:50:34;13.80;81.70
16032;DHT22;8120;48.308;8.914;2022-07-03T00:53:03;13.70;81.70
16032;DHT22;8120;48.308;8.914;2022-07-03T00:55:32;13.60;82.20
16032;DHT22;8120;48.308;8.914;2022-07-03T00:58:04;13.60;82.20
16032;DHT22;8120;48.308;8.914;2022-07-03T01:00:33;13.50;83.10
16032;DHT22;8120;48.308;8.914;2022-07-03T01:03:06;13.50;83.60
16032;DHT22;8120;48.308;8.914;2022-07-03T01:05:36;13.60;83.50
16032;DHT22;8120;48.308;8.914;2022-07-03T01:08:12;13.70;83.40
16032;DHT22;8120;48.308;8.914;2022-07-03T01:10:49;13.70;83.40
16032;DHT22;8120;48.308;8.914;2022-07-03T01:13:29;13.80;82.40
16032;DHT22;8120;48.308;8.914;2022-07-03T01:16:07;13.80;82.30
16032;DHT22;8120;48.308;8.914;2022-07-03T01:18:44;13.70;81.50
16032;DHT22;8120;48.308;8.914;2022-07-03T01:21:39;13.50;81.00
16032;DHT22;8120;48.308;8.914;2022-07-03T01:24:21;13.30;82.70
16032;DHT22;8120;48.308;8.914;2022-07-03T01:26:57;13.20;83.40
16032;DHT22;8120;48.308;8.914;2022-07-03T01:29:34;13.10;84.10
16032;DHT22;8120;48.308;8.914;2022-07-03T01:32:03;13.10;84.70
16032;DHT22;8120;48.308;8.914;2022-07-03T01:34:34;13.10;84.60
16032;DHT22;8120;48.308;8.914;2022-07-03T01:37:03;13.10;85.00
16032;DHT22;8120;48.308;8.914;2022-07-03T01:39:34;13.10;84.90
16032;DHT22;8120;48.308;8.914;2022-07-03T01:42:23;13.20;85.30
16032;DHT22;8120;48.308;8.914;2022-07-03T01:44:52;13.20;84.40
16032;DHT22;8120;48.308;8.914;2022-07-03T01:47:21;13.20;84.50
16032;DHT22;8120;48.308;8.914;2022-07-03T01:49:55;13.20;84.80
16032;DHT22;8120;48.308;8.914;2022-07-03T01:52:24;13.30;84.20
16032;DHT22;8120;48.308;8.914;2022-07-03T01:55:13;13.20;84.40
16032;DHT22;8120;48.308;8.914;2022-07-03T01:57:45;13.20;84.80
16032;DHT22;8120;48.308;8.914;2022-07-03T02:00:16;13.30;85.50
16032;DHT22;8120;48.308;8.914;2022-07-03T02:02:52;13.30;83.60
16032;DHT22;8120;48.308;8.914;2022-07-03T02:05:29;13.30;83.60
16032;DHT22;8120;48.308;8.914;2022-07-03T02:08:05;13.20;84.60
16032;DHT22;8120;48.308;8.914;2022-07-03T02:10:38;13.10;84.60
16032;DHT22;8120;48.308;8.914;2022-07-03T02:13:12;13.00;85.30
16032;DHT22;8120;48.308;8.914;2022-07-03T02:15:44;12.90;84.20
16032;DHT22;8120;48.308;8.914;2022-07-03T02:18:23;12.80;83.90
16032;DHT22;8120;48.308;8.914;2022-07-03T02:21:03;12.80;84.80
16032;DHT22;8120;48.308;8.914;2022-07-03T02:23:37;12.70;85.80
16032;DHT22;8120;48.308;8.914;2022-07-03T02:26:08;12.70;86.40
16032;DHT22;8120;48.308;8.914;2022-07-03T02:28:52;12.70;86.70
16032;DHT22;8120;48.308;8.914;2022-07-03T02:31:21;12.60;87.20
16032;DHT22;8120;48.308;8.914;2022-07-03T02:33:56;12.70;87.60
16032;DHT22;8120;48.308;8.914;2022-07-03T02:36:27;12.70;87.40
16032;DHT22;8120;48.308;8.914;2022-07-03T02:38:57;12.60;87.10
16032;DHT22;8120;48.308;8.914;2022-07-03T02:41:32;12.60;87.30
16032;DHT22;8120;48.308;8.914;2022-07-03T02:44:07;12.60;87.40
16032;DHT22;8120;48.308;8.914;2022-07-03T02:46:42;12.50;87.10
16032;DHT22;8120;48.308;8.914;2022-07-03T02:49:26;12.50;86.40
16032;DHT22;8120;48.308;8.914;2022-07-03T02:52:02;12.40;86.40
16032;DHT22;8120;48.308;8.914;2022-07-03T02:54:32;12.30;87.20
16032;DHT22;8120;48.308;8.914;2022-07-03T02:57:08;12.30;87.40
16032;DHT22;8120;48.308;8.914;2022-07-03T02:59:45;12.40;88.20
16032;DHT22;8120;48.308;8.914;2022-07-03T03:02:25;12.40;88.20
16032;DHT22;8120;48.308;8.914;2022-07-03T03:04:58;12.40;89.00
16032;DHT22;8120;48.308;8.914;2022-07-03T03:07:32;12.50;88.60
16032;DHT22;8120;48.308;8.914;2022-07-03T03:10:01;12.50;87.10
16032;DHT22;8120;48.308;8.914;2022-07-03T03:12:31;12.50;87.70
16032;DHT22;8120;48.308;8.914;2022-07-03T03:15:04;12.40;88.10
16032;DHT22;8120;48.308;8.914;2022-07-03T03:17:43;12.40;88.30
16032;DHT22;8120;48.308;8.914;2022-07-03T03:20:15;12.40;87.40
16032;DHT22;8120;48.308;8.914;2022-07-03T03:22:59;12.30;87.20
16032;DHT22;8120;48.308;8.914;2022-07-03T03:25:27;12.20;87.20
16032;DHT22;8120;48.308;8.914;2022-07-03T03:27:54;12.20;86.70
16032;DHT22;8120;48.308;8.914;2022-07-03T03:30:24;12.20;88.10
16032;DHT22;8120;48.308;8.914;2022-07-03T03:32:52;12.20;88.70
16032;DHT22;8120;48.308;8.914;2022-07-03T03:35:19;12.20;87.50
16032;DHT22;8120;48.308;8.914;2022-07-03T03:37:47;12.10;87.60
16032;DHT22;8120;48.308;8.914;2022-07-03T03:40:16;12.10;88.30
16032;DHT22;8120;48.308;8.914;2022-07-03T03:42:44;12.10;88.30
16032;DHT22;8120;48.308;8.914;2022-07-03T03:45:12;12.10;87.70
16032;DHT22;8120;48.308;8.914;2022-07-03T03:47:41;12.40;87.60
16032;DHT22;8120;48.308;8.914;2022-07-03T03:50:09;12.90;85.30
16032;DHT22;8120;48.308;8.914;2022-07-03T03:52:37;13.40;81.50
16032;DHT22;8120;48.308;8.914;2022-07-03T03:55:06;13.90;80.60
16032;DHT22;8120;48.308;8.914;2022-07-03T03:57:35;14.30;78.70
16032;DHT22;8120;48.308;8.914;2022-07-03T04:00:04;14.60;77.80
16032;DHT22;8120;48.308;8.914;2022-07-03T04:02:32;15.20;75.50
16032;DHT22;8120;48.308;8.914;2022-07-03T04:05:02;15.50;74.60
16032;DHT22;8120;48.308;8.914;2022-07-03T04:07:29;16.00;74.00
16032;DHT22;8120;48.308;8.914;2022-07-03T04:09:57;16.30;71.70
16032;DHT22;8120;48.308;8.914;2022-07-03T04:12:25;16.70;69.60
16032;DHT22;8120;48.308;8.914;2022-07-03T04:14:53;17.00;69.40
16032;DHT22;8120;48.308;8.914;2022-07-03T04:17:21;17.20;68.80
16032;DHT22;8120;48.308;8.914;2022-07-03T04:19:48;17.10;68.90
16032;DHT22;8120;48.308;8.914;2022-07-03T04:22:17;17.30;67.00
16032;DHT22;8120;48.308;8.914;2022-07-03T04:24:45;17.70;67.10
16032;DHT22;8120;48.308;8.914;2022-07-03T04:27:13;18.40;63.30
16032;DHT22;8120;48.308;8.914;2022-07-03T04:29:41;18.50;62.40
16032;DHT22;8120;48.308;8.914;2022-07-03T04:32:09;18.40;63.20
16032;DHT22;8120;48.308;8.914;2022-07-03T04:34:37;19.10;60.40
16032;DHT22;8120;48.308;8.914;2022-07-03T04:37:05;18.60;61.40
16032;DHT22;8120;48.308;8.914;2022-07-03T04:39:34;17.90;64.00
16032;DHT22;8120;48.308;8.914;2022-07-03T04:42:02;18.40;63.30
16032;DHT22;8120;48.308;8.914;2022-07-03T04:44:30;18.70;61.80
16032;DHT22;8120;48.308;8.914;2022-07-03T04:46:58;18.50;63.00
16032;DHT22;8120;48.308;8.914;2022-07-03T04:49:26;18.60;63.00
16032;DHT22;8120;48.308;8.914;2022-07-03T04:51:53;18.30;63.70
16032;DHT22;8120;48.308;8.914;2022-07-03T04:54:23;18.10;65.00
16032;DHT22;8120;48.308;8.914;2022-07-03T04:56:52;18.10;65.70
16032;DHT22;8120;48.308;8.914;2022-07-03T04:59:20;18.40;64.10
16032;DHT22;8120;48.308;8.914;2022-07-03T05:01:47;18.90;63.90
16032;DHT22;8120;48.308;8.914;2022-07-03T05:04:16;18.90;63.60
16032;DHT22;8120;48.308;8.914;2022-07-03T05:06:44;19.40;61.80
16032;DHT22;8120;48.308;8.914;2022-07-03T05:09:12;20.20;60.10
16032;DHT22;8120;48.308;8.914;2022-07-03T05:11:40;21.30;56.50
16032;DHT22;8120;48.308;8.914;2022-07-03T05:14:10;22.20;53.50
16032;DHT22;8120;48.308;8.914;2022-07-03T05:16:38;22.30;53.70
16032;DHT22;8120;48.308;8.914;2022-07-03T05:19:06;22.60;53.30
16032;DHT22;8120;48.308;8.914;2022-07-03T05:21:34;22.00;54.90
16032;DHT22;8120;48.308;8.914;2022-07-03T05:24:02;22.40;54.20
16032;DHT22;8120;48.308;8.914;2022-07-03T05:26:36;21.40;57.00
16032;DHT22;8120;48.308;8.914;2022-07-03T05:29:04;20.70;59.60
16032;DHT22;8120;48.308;8.914;2022-07-03T05:31:33;20.00;61.80
16032;DHT22;8120;48.308;8.914;2022-07-03T05:34:00;20.10;63.00
16032;DHT22;8120;48.308;8.914;2022-07-03T05:36:28;20.00;63.20
16032;DHT22;8120;48.308;8.914;2022-07-03T05:38:56;20.10;63.30
16032;DHT22;8120;48.308;8.914;2022-07-03T05:41:41;20.40;62.80
16032;DHT22;8120;48.308;8.914;2022-07-03T05:44:09;21.30;60.80
16032;DHT22;8120;48.308;8.914;2022-07-03T05:46:38;22.60;57.40
16032;DHT22;8120;48.308;8.914;2022-07-03T05:49:06;23.80;53.50
16032;DHT22;8120;48.308;8.914;2022-07-03T05:51:34;23.60;54.40
16032;DHT22;8120;48.308;8.914;2022-07-03T05:54:02;23.20;56.30
16032;DHT22;8120;48.308;8.914;2022-07-03T05:56:30;23.40;56.40
16032;DHT22;8120;48.308;8.914;2022-07-03T05:58:58;23.70;54.70
16032;DHT22;8120;48.308;8.914;2022-07-03T06:01:26;23.70;54.80
16032;DHT22;8120;48.308;8.914;2022-07-03T06:03:55;23.70;55.60
16032;DHT22;8120;48.308;8.914;2022-07-03T06:06:23;22.80;57.70
16032;DHT22;8120;48.308;8.914;2022-07-03T06:08:50;22.60;57.30
16032;DHT22;8120;48.308;8.914;2022-07-03T06:11:18;22.80;57.80
16032;DHT22;8120;48.308;8.914;2022-07-03T06:13:46;23.10;56.00
16032;DHT22;8120;48.308;8.914;2022-07-03T06:16:14;23.80;53.50
16032;DHT22;8120;48.308;8.914;2022-07-03T06:18:42;23.70;51.20
16032;DHT22;8120;48.308;8.914;2022-07-03T06:21:11;23.50;50.80
16032;DHT22;8120;48.308;8.914;2022-07-03T06:23:39;23.10;49.10
16032;DHT22;8120;48.308;8.914;2022-07-03T06:26:12;23.30;51.20
16032;DHT22;8120;48.308;8.914;2022-07-03T06:28:41;23.90;48.20
16032;DHT22;8120;48.308;8.914;2022-07-03T06:31:08;24.10;48.10
16032;DHT22;8120;48.308;8.914;2022-07-03T06:33:36;24.50;45.90
16032;DHT22;8120;48.308;8.914;2022-07-03T06:36:04;24.70;46.70
16032;DHT22;8120;48.308;8.914;2022-07-03T06:38:34;24.10;44.40
16032;DHT22;8120;48.308;8.914;2022-07-03T06:41:02;24.10;46.00
16032;DHT22;8120;48.308;8.914;2022-07-03T06:43:29;24.10;45.10
16032;DHT22;8120;48.308;8.914;2022-07-03T06:45:57;24.40;44.60
16032;DHT22;8120;48.308;8.914;2022-07-03T06:48:25;24.60;42.80
16032;DHT22;8120;48.308;8.914;2022-07-03T06:50:53;24.90;42.60
16032;DHT22;8120;48.308;8.914;2022-07-03T06:53:21;24.90;43.80
16032;DHT22;8120;48.308;8.914;2022-07-03T06:55:50;24.90;43.90
16032;DHT22;8120;48.308;8.914;2022-07-03T06:58:18;25.10;43.90
16032;DHT22;8120;48.308;8.914;2022-07-03T07:00:45;24.70;43.70
16032;DHT22;8120;48.308;8.914;2022-07-03T07:03:13;24.30;44.70
16032;DHT22;8120;48.308;8.914;2022-07-03T07:05:41;24.90;43.80
16032;DHT22;8120;48.308;8.914;2022-07-03T07:08:09;24.70;43.40
16032;DHT22;8120;48.308;8.914;2022-07-03T07:10:37;24.20;44.30
16032;DHT22;8120;48.308;8.914;2022-07-03T07:13:06;24.40;44.00
16032;DHT22;8120;48.308;8.914;2022-07-03T07:15:34;24.80;43.60
16032;DHT22;8120;48.308;8.914;2022-07-03T07:18:01;25.00;44.40
16032;DHT22;8120;48.308;8.914;2022-07-03T07:20:29;25.60;43.90
16032;DHT22;8120;48.308;8.914;2022-07-03T07:22:57;26.10;41.10
16032;DHT22;8120;48.308;8.914;2022-07-03T07:25:25;26.30;41.00
16032;DHT22;8120;48.308;8.914;2022-07-03T07:27:53;26.60;41.40
16032;DHT22;8120;48.308;8.914;2022-07-03T07:30:22;26.10;41.40
16032;DHT22;8120;48.308;8.914;2022-07-03T07:32:50;25.80;41.30
16032;DHT22;8120;48.308;8.914;2022-07-03T07:35:20;25.20;41.60
16032;DHT22;8120;48.308;8.914;2022-07-03T07:37:48;25.70;42.50
16032;DHT22;8120;48.308;8.914;2022-07-03T07:40:16;26.40;41.90
16032;DHT22;8120;48.308;8.914;2022-07-03T07:42:44;26.40;40.50
16032;DHT22;8120;48.308;8.914;2022-07-03T07:45:11;25.60;39.80
16032;DHT22;8120;48.308;8.914;2022-07-03T07:47:41;25.70;39.00
16032;DHT22;8120;48.308;8.914;2022-07-03T07:50:09;26.20;38.30
16032;DHT22;8120;48.308;8.914;2022-07-03T07:52:37;26.20;38.10
16032;DHT22;8120;48.308;8.914;2022-07-03T07:55:06;26.00;38.80
16032;DHT22;8120;48.308;8.914;2022-07-03T07:57:35;26.70;38.10
16032;DHT22;8120;48.308;8.914;2022-07-03T08:00:07;26.60;37.40
16032;DHT22;8120;48.308;8.914;2022-07-03T08:02:35;26.40;37.30
16032;DHT22;8120;48.308;8.914;2022-07-03T08:05:22;26.80;37.10
16032;DHT22;8120;48.308;8.914;2022-07-03T08:08:07;27.30;36.90
16032;DHT22;8120;48.308;8.914;2022-07-03T08:10:37;28.20;37.00
16032;DHT22;8120;48.308;8.914;2022-07-03T08:13:06;28.00;35.90
16032;DHT22;8120;48.308;8.914;2022-07-03T08:15:34;27.70;36.30
16032;DHT22;8120;48.308;8.914;2022-07-03T08:18:02;27.10;35.60
16032;DHT22;8120;48.308;8.914;2022-07-03T08:20:32;26.50;36.70
16032;DHT22;8120;48.308;8.914;2022-07-03T08:23:01;26.30;37.80
16032;DHT22;8120;48.308;8.914;2022-07-03T08:25:28;26.70;36.30
16032;DHT22;8120;48.308;8.914;2022-07-03T08:27:57;27.00;36.00
16032;DHT22;8120;48.308;8.914;2022-07-03T08:30:25;26.50;36.90
16032;DHT22;8120;48.308;8.914;2022-07-03T08:32:54;26.20;36.10
16032;DHT22;8120;48.308;8.914;2022-07-03T08:35:23;25.60;38.00
16032;DHT22;8120;48.308;8.914;2022-07-03T08:37:53;26.30;36.70
16032;DHT22;8120;48.308;8.914;2022-07-03T08:40:21;27.40;37.40
16032;DHT22;8120;48.308;8.914;2022-07-03T08:42:52;27.90;36.20
16032;DHT22;8120;48.308;8.914;2022-07-03T08:45:22;28.60;35.10
16032;DHT22;8120;48.308;8.914;2022-07-03T08:47:53;28.70;34.50
16032;DHT22;8120;48.308;8.914;2022-07-03T08:50:22;28.40;34.30
16032;DHT22;8120;48.308;8.914;2022-07-03T08:52:50;28.50;34.90
16032;DHT22;8120;48.308;8.914;2022-07-03T08:55:19;28.90;34.20
16032;DHT22;8120;48.308;8.914;2022-07-03T08:57:48;28.90;34.60
16032;DHT22;8120;48.308;8.914;2022-07-03T09:00:17;29.40;34.80
16032;DHT22;8120;48.308;8.914;2022-07-03T09:02:47;29.10;35.30
16032;DHT22;8120;48.308;8.914;2022-07-03T09:05:16;28.40;34.00
16032;DHT22;8120;48.308;8.914;2022-07-03T09:07:46;27.60;36.20
16032;DHT22;8120;48.308;8.914;2022-07-03T09:10:15;28.00;36.00
16032;DHT22;8120;48.308;8.914;2022-07-03T09:12:45;29.00;33.90
16032;DHT22;8120;48.308;8.914;2022-07-03T09:15:14;29.70;32.90
16032;DHT22;8120;48.308;8.914;2022-07-03T09:17:56;29.60;34.20
16032;DHT22;8120;48.308;8.914;2022-07-03T09:20:30;29.10;33.20
16032;DHT22;8120;48.308;8.914;2022-07-03T09:23:12;28.10;35.10
16032;DHT22;8120;48.308;8.914;2022-07-03T09:25:54;28.50;33.90
16032;DHT22;8120;48.308;8.914;2022-07-03T09:28:40;27.70;34.80
16032;DHT22;8120;48.308;8.914;2022-07-03T09:31:10;27.60;36.30
16032;DHT22;8120;48.308;8.914;2022-07-03T09:33:52;27.80;36.50
16032;DHT22;8120;48.308;8.914;2022-07-03T09:36:21;27.90;35.50
16032;DHT22;8120;48.308;8.914;2022-07-03T09:38:50;28.10;35.20
16032;DHT22;8120;48.308;8.914;2022-07-03T09:41:17;28.10;35.50
16032;DHT22;8120;48.308;8.914;2022-07-03T09:43:47;28.10;34.10
16032;DHT22;8120;48.308;8.914;2022-07-03T09:46:14;27.40;34.80
16032;DHT22;8120;48.308;8.914;2022-07-03T09:48:42;27.70;34.90
16032;DHT22;8120;48.308;8.914;2022-07-03T09:51:19;27.70;34.50
16032;DHT22;8120;48.308;8.914;2022-07-03T09:53:52;27.80;35.30
16032;DHT22;8120;48.308;8.914;2022-07-03T09:56:25;28.90;33.40
16032;DHT22;8120;48.308;8.914;2022-07-03T09:59:06;29.10;33.80
16032;DHT22;8120;48.308;8.914;2022-07-03T10:01:35;29.50;33.80
16032;DHT22;8120;48.308;8.914;2022-07-03T10:04:15;29.50;35.40
16032;DHT22;8120;48.308;8.914;2022-07-03T10:06:47;29.20;33.90
16032;DHT22;8120;48.308;8.914;2022-07-03T10:09:16;28.50;34.50
16032;DHT22;8120;48.308;8.914;2022-07-03T10:11:44;29.40;34.00
16032;DHT22;8120;48.308;8.914;2022-07-03T10:14:16;29.70;32.30
16032;DHT22;8120;48.308;8.914;2022-07-03T10:16:44;29.80;33.00
16032;DHT22;8120;48.308;8.914;2022-07-03T10:19:15;29.60;33.70
16032;DHT22;8120;48.308;8.914;2022-07-03T10:21:50;28.80;34.50
16032;DHT22;8120;48.308;8.914;2022-07-03T10:24:21;27.90;34.20
16032;DHT22;8120;48.308;8.914;2022-07-03T10:26:49;26.60;37.60
16032;DHT22;8120;48.308;8.914;2022-07-03T10:29:22;26.40;37.20
16032;DHT22;8120;48.308;8.914;2022-07-03T10:31:55;26.70;36.50
16032;DHT22;8120;48.308;8.914;2022-07-03T10:34:25;27.70;36.10
16032;DHT22;8120;48.308;8.914;2022-07-03T10:36:57;27.60;35.00
16032;DHT22;8120;48.308;8.914;2022-07-03T10:39:35;27.60;35.50
16032;DHT22;8120;48.308;8.914;2022-07-03T10:42:05;28.30;37.60
16032;DHT22;8120;48.308;8.914;2022-07-03T10:45:06;28.30;36.10
16032;DHT22;8120;48.308;8.914;2022-07-03T10:47:45;28.90;35.30
16032;DHT22;8120;48.308;8.914;2022-07-03T10:50:16;29.10;35.10
16032;DHT22;8120;48.308;8.914;2022-07-03T10:52:45;29.30;34.20
16032;DHT22;8120;48.308;8.914;2022-07-03T10:55:14;29.60;33.20
16032;DHT22;8120;48.308;8.914;2022-07-03T10:57:43;29.20;33.60
16032;DHT22;8120;48.308;8.914;2022-07-03T11:00:17;29.60;35.70
16032;DHT22;8120;48.308;8.914;2022-07-03T11:02:47;29.40;34.50
16032;DHT22;8120;48.308;8.914;2022-07-03T11:05:26;29.30;36.10
16032;DHT22;8120;48.308;8.914;2022-07-03T11:08:19;29.20;33.40
16032;DHT22;8120;48.308;8.914;2022-07-03T11:10:47;29.50;33.40
16032;DHT22;8120;48.308;8.914;2022-07-03T11:13:36;29.30;33.60
16032;DHT22;8120;48.308;8.914;2022-07-03T11:16:25;29.30;34.00
16032;DHT22;8120;48.308;8.914;2022-07-03T11:19:00;29.20;34.40
16032;DHT22;8120;48.308;8.914;2022-07-03T11:21:41;29.00;34.30
16032;DHT22;8120;48.308;8.914;2022-07-03T11:24:35;29.10;34.30
16032;DHT22;8120;48.308;8.914;2022-07-03T11:27:13;28.90;33.20
16032;DHT22;8120;48.308;8.914;2022-07-03T11:29:41;28.00;34.70
16032;DHT22;8120;48.308;8.914;2022-07-03T11:32:45;28.80;36.50
16032;DHT22;8120;48.308;8.914;2022-07-03T11:38:27;29.30;34.10
16032;DHT22;8120;48.308;8.914;2022-07-03T11:40:57;29.50;33.80
16032;DHT22;8120;48.308;8.914;2022-07-03T11:43:26;29.40;34.00
16032;DHT22;8120;48.308;8.914;2022-07-03T11:45:54;29.60;34.00
16032;DHT22;8120;48.308;8.914;2022-07-03T11:48:26;29.60;34.50
16032;DHT22;8120;48.308;8.914;2022-07-03T11:50:59;29.40;35.10
16032;DHT22;8120;48.308;8.914;2022-07-03T11:53:29;28.30;33.70
16032;DHT22;8120;48.308;8.914;2022-07-03T11:55:58;28.50;35.10
16032;DHT22;8120;48.308;8.914;2022-07-03T11:58:41;28.60;34.80
16032;DHT22;8120;48.308;8.914;2022-07-03T12:01:09;28.80;35.60
16032;DHT22;8120;48.308;8.914;2022-07-03T12:03:39;29.60;35.50
16032;DHT22;8120;48.308;8.914;2022-07-03T12:06:07;29.60;34.80
16032;DHT22;8120;48.308;8.914;2022-07-03T12:08:34;29.50;34.90
16032;DHT22;8120;48.308;8.914;2022-07-03T12:11:06;29.60;33.50
16032;DHT22;8120;48.308;8.914;2022-07-03T12:13:33;29.60;33.50
16032;DHT22;8120;48.308;8.914;2022-07-03T12:16:07;29.60;33.50
16032;DHT22;8120;48.308;8.914;2022-07-03T12:18:48;29.40;33.20
16032;DHT22;8120;48.308;8.914;2022-07-03T12:21:18;28.90;33.70
16032;DHT22;8120;48.308;8.914;2022-07-03T12:23:49;28.70;33.40
16032;DHT22;8120;48.308;8.914;2022-07-03T12:26:27;29.00;34.70
16032;DHT22;8120;48.308;8.914;2022-07-03T12:28:57;29.40;34.30
16032;DHT22;8120;48.308;8.914;2022-07-03T12:31:26;29.00;33.80
16032;DHT22;8120;48.308;8.914;2022-07-03T12:33:57;29.30;34.50
16032;DHT22;8120;48.308;8.914;2022-07-03T12:36:25;29.70;33.30
16032;DHT22;8120;48.308;8.914;2022-07-03T12:38:54;29.80;33.20
16032;DHT22;8120;48.308;8.914;2022-07-03T12:41:24;30.10;32.70
16032;DHT22;8120;48.308;8.914;2022-07-03T12:43:53;30.00;32.70
16032;DHT22;8120;48.308;8.914;2022-07-03T12:46:23;30.00;33.40
16032;DHT22;8120;48.308;8.914;2022-07-03T12:48:52;30.00;33.40
16032;DHT22;8120;48.308;8.914;2022-07-03T12:51:38;30.30;33.20
16032;DHT22;8120;48.308;8.914;2022-07-03T12:54:07;29.70;33.10
16032;DHT22;8120;48.308;8.914;2022-07-03T12:56:35;29.60;33.90
16032;DHT22;8120;48.308;8.914;2022-07-03T12:59:03;29.90;33.20
16032;DHT22;8120;48.308;8.914;2022-07-03T13:01:59;29.80;32.60
16032;DHT22;8120;48.308;8.914;2022-07-03T13:04:33;29.90;32.50
16032;DHT22;8120;48.308;8.914;2022-07-03T13:07:04;29.80;33.40
16032;DHT22;8120;48.308;8.914;2022-07-03T13:09:33;30.00;32.10
16032;DHT22;8120;48.308;8.914;2022-07-03T13:12:02;29.80;33.50
16032;DHT22;8120;48.308;8.914;2022-07-03T13:14:30;29.50;32.60
16032;DHT22;8120;48.308;8.914;2022-07-03T13:16:58;29.70;31.50
16032;DHT22;8120;48.308;8.914;2022-07-03T13:19:27;29.80;32.70
16032;DHT22;8120;48.308;8.914;2022-07-03T13:21:57;30.20;31.50
16032;DHT22;8120;48.308;8.914;2022-07-03T13:24:26;30.40;32.30
16032;DHT22;8120;48.308;8.914;2022-07-03T13:26:54;30.30;32.10
16032;DHT22;8120;48.308;8.914;2022-07-03T13:29:23;30.50;32.80
16032;DHT22;8120;48.308;8.914;2022-07-03T13:31:52;30.70;32.50
16032;DHT22;8120;48.308;8.914;2022-07-03T13:34:20;30.40;33.30
16032;DHT22;8120;48.308;8.914;2022-07-03T13:36:48;30.20;34.30
16032;DHT22;8120;48.308;8.914;2022-07-03T13:39:16;30.50;34.20
16032;DHT22;8120;48.308;8.914;2022-07-03T13:41:45;29.40;34.00
16032;DHT22;8120;48.308;8.914;2022-07-03T13:44:13;29.50;31.90
16032;DHT22;8120;48.308;8.914;2022-07-03T13:46:41;29.40;34.00
16032;DHT22;8120;48.308;8.914;2022-07-03T13:49:16;29.70;33.60
16032;DHT22;8120;48.308;8.914;2022-07-03T13:51:44;29.70;32.30
16032;DHT22;8120;48.308;8.914;2022-07-03T13:54:12;29.90;33.40
16032;DHT22;8120;48.308;8.914;2022-07-03T13:56:40;30.20;32.40
16032;DHT22;8120;48.308;8.914;2022-07-03T13:59:09;29.50;32.30
16032;DHT22;8120;48.308;8.914;2022-07-03T14:01:38;29.60;34.90
16032;DHT22;8120;48.308;8.914;2022-07-03T14:04:06;30.00;33.50
16032;DHT22;8120;48.308;8.914;2022-07-03T14:06:34;30.00;32.60
16032;DHT22;8120;48.308;8.914;2022-07-03T14:09:02;30.10;32.50
16032;DHT22;8120;48.308;8.914;2022-07-03T14:11:30;29.80;33.00
16032;DHT22;8120;48.308;8.914;2022-07-03T14:13:58;30.10;34.30
16032;DHT22;8120;48.308;8.914;2022-07-03T14:16:27;30.30;32.20
16032;DHT22;8120;48.308;8.914;2022-07-03T14:18:55;30.20;31.50
16032;DHT22;8120;48.308;8.914;2022-07-03T14:21:23;30.20;32.20
16032;DHT22;8120;48.308;8.914;2022-07-03T14:23:51;30.10;31.50
16032;DHT22;8120;48.308;8.914;2022-07-03T14:26:19;29.50;31.70
16032;DHT22;8120;48.308;8.914;2022-07-03T14:29:07;29.60;32.80
16032;DHT22;8120;48.308;8.914;2022-07-03T14:31:54;29.80;32.40
16032;DHT22;8120;48.308;8.914;2022-07-03T14:34:39;29.90;32.30
16032;DHT22;8120;48.308;8.914;2022-07-03T14:37:08;29.60;32.60
16032;DHT22;8120;48.308;8.914;2022-07-03T14:39:36;29.60;32.90
16032;DHT22;8120;48.308;8.914;2022-07-03T14:42:05;30.10;32.50
16032;DHT22;8120;48.308;8.914;2022-07-03T14:47:01;29.80;32.00
16032;DHT22;8120;48.308;8.914;2022-07-03T14:49:29;29.90;32.20
16032;DHT22;8120;48.308;8.914;2022-07-03T14:52:00;30.00;33.20
16032;DHT22;8120;48.308;8.914;2022-07-03T14:54:28;30.20;34.10
16032;DHT22;8120;48.308;8.914;2022-07-03T14:56:58;30.00;33.60
16032;DHT22;8120;48.308;8.914;2022-07-03T14:59:34;29.60;33.20
16032;DHT22;8120;48.308;8.914;2022-07-03T15:02:10;29.60;32.30
16032;DHT22;8120;48.308;8.914;2022-07-03T15:04:55;29.80;32.10
16032;DHT22;8120;48.308;8.914;2022-07-03T15:07:26;30.00;32.10
16032;DHT22;8120;48.308;8.914;2022-07-03T15:10:02;30.10;33.70
16032;DHT22;8120;48.308;8.914;2022-07-03T15:12:33;30.10;32.10
16032;DHT22;8120;48.308;8.914;2022-07-03T15:15:01;29.90;33.00
16032;DHT22;8120;48.308;8.914;2022-07-03T15:17:33;30.00;34.00
16032;DHT22;8120;48.308;8.914;2022-07-03T15:20:02;30.10;32.70
16032;DHT22;8120;48.308;8.914;2022-07-03T15:22:31;30.10;32.70
16032;DHT22;8120;48.308;8.914;2022-07-03T15:24:59;30.30;33.10
16032;DHT22;8120;48.308;8.914;2022-07-03T15:27:29;30.30;30.70
16032;DHT22;8120;48.308;8.914;2022-07-03T15:29:57;30.60;32.10
16032;DHT22;8120;48.308;8.914;2022-07-03T15:32:25;30.80;30.40
16032;DHT22;8120;48.308;8.914;2022-07-03T15:34:55;30.60;32.70
16032;DHT22;8120;48.308;8.914;2022-07-03T15:37:32;30.50;33.70
16032;DHT22;8120;48.308;8.914;2022-07-03T15:40:04;30.10;32.00
16032;DHT22;8120;48.308;8.914;2022-07-03T15:42:44;29.80;33.20
16032;DHT22;8120;48.308;8.914;2022-07-03T15:45:27;29.90;32.50
16032;DHT22;8120;48.308;8.914;2022-07-03T15:48:03;29.60;32.90
16032;DHT22;8120;48.308;8.914;2022-07-03T15:50:43;29.30;34.10
16032;DHT22;8120;48.308;8.914;2022-07-03T15:53:15;29.00;35.00
16032;DHT22;8120;48.308;8.914;2022-07-03T15:55:46;29.00;34.30
16032;DHT22;8120;48.308;8.914;2022-07-03T15:58:16;29.30;32.30
16032;DHT22;8120;48.308;8.914;2022-07-03T16:00:46;29.70;32.90
16032;DHT22;8120;48.308;8.914;2022-07-03T16:03:41;29.90;32.30
16032;DHT22;8120;48.308;8.914;2022-07-03T16:06:16;29.90;31.70
16032;DHT22;8120;48.308;8.914;2022-07-03T16:08:46;29.80;31.00
16032;DHT22;8120;48.308;8.914;2022-07-03T16:11:16;29.80;33.30
16032;DHT22;8120;48.308;8.914;2022-07-03T16:13:45;29.70;32.60
16032;DHT22;8120;48.308;8.914;2022-07-03T16:16:14;29.80;33.40